sensor_id;sensor_type;location;lat;lon;timestamp;P1;durP1;ratioP1;P2;durP2;ratioP2
34828;SDS011;21042;47.620;12.188;2023-12-20T00:01:58;13.82;;;6.43;;
34828;SDS011;21042;47.620;12.188;2023-12-20T00:04:25;12.15;;;5.90;;
34828;SDS011;21042;47.620;12.188;2023-12-20T00:06:52;13.30;;;6.32;;
34828;SDS011;21042;47.620;12.188;2023-12-20T00:09:19;7.47;;;5.30;;
34828;SDS011;21042;47.620;12.188;2023-12-20T00:11:46;11.90;;;5.80;;
34828;SDS011;21042;47.620;12.188;2023-12-20T00:14:12;12.20;;;6.30;;
34828;SDS011;21042;47.620;12.188;2023-12-20T00:16:39;15.48;;;6.68;;
34828;SDS011;21042;47.620;12.188;2023-12-20T00:19:06;17.23;;;6.50;;
34828;SDS011;21042;47.620;12.188;2023-12-20T00:21:34;14.98;;;7.43;;
34828;SDS011;21042;47.620;12.188;2023-12-20T00:24:01;17.80;;;8.50;;
34828;SDS011;21042;47.620;12.188;2023-12-20T00:26:28;19.65;;;8.77;;
34828;SDS011;21042;47.620;12.188;2023-12-20T00:28:55;22.10;;;9.73;;
34828;SDS011;21042;47.620;12.188;2023-12-20T00:31:21;20.33;;;8.48;;
34828;SDS011;21042;47.620;12.188;2023-12-20T00:33:48;15.00;;;6.07;;
34828;SDS011;21042;47.620;12.188;2023-12-20T00:36:15;16.80;;;6.80;;
34828;SDS011;21042;47.620;12.188;2023-12-20T00:38:42;8.88;;;3.85;;
34828;SDS011;21042;47.620;12.188;2023-12-20T00:41:09;12.43;;;6.38;;
34828;SDS011;21042;47.620;12.188;2023-12-20T00:43:36;13.88;;;6.32;;
34828;SDS011;21042;47.620;12.188;2023-12-20T00:46:02;10.00;;;5.28;;
34828;SDS011;21042;47.620;12.188;2023-12-20T00:48:29;10.65;;;4.90;;
34828;SDS011;21042;47.620;12.188;2023-12-20T00:50:57;10.23;;;4.82;;
34828;SDS011;21042;47.620;12.188;2023-12-20T00:53:24;11.95;;;4.43;;
34828;SDS011;21042;47.620;12.188;2023-12-20T00:55:51;7.38;;;2.90;;
34828;SDS011;21042;47.620;12.188;2023-12-20T00:58:17;8.43;;;3.80;;
34828;SDS011;21042;47.620;12.188;2023-12-20T01:00:44;8.77;;;4.93;;
34828;SDS011;21042;47.620;12.188;2023-12-20T01:05:38;14.10;;;5.88;;
34828;SDS011;21042;47.620;12.188;2023-12-20T01:08:05;16.38;;;7.45;;
34828;SDS011;21042;47.620;12.188;2023-12-20T01:12:59;17.20;;;6.35;;
34828;SDS011;21042;47.620;12.188;2023-12-20T01:15:26;11.07;;;6.28;;
34828;SDS011;21042;47.620;12.188;2023-12-20T01:17:53;9.68;;;5.07;;
34828;SDS011;21042;47.620;12.188;2023-12-20T01:20:19;17.38;;;7.53;;
34828;SDS011;21042;47.620;12.188;2023-12-20T01:22:47;13.02;;;6.60;;
34828;SDS011;21042;47.620;12.188;2023-12-20T01:25:13;12.95;;;6.65;;
34828;SDS011;21042;47.620;12.188;2023-12-20T01:27:40;14.77;;;7.38;;
34828;SDS011;21042;47.620;12.188;2023-12-20T01:30:08;15.77;;;7.00;;
34828;SDS011;21042;47.620;12.188;2023-12-20T01:32:35;15.27;;;6.88;;
34828;SDS011;21042;47.620;12.188;2023-12-20T01:35:02;17.48;;;6.78;;
34828;SDS011;21042;47.620;12.188;2023-12-20T01:39:56;14.45;;;6.78;;
34828;SDS011;21042;47.620;12.188;2023-12-20T01:42:23;17.38;;;7.85;;
34828;SDS011;21042;47.620;12.188;2023-12-20T01:44:49;13.30;;;7.05;;
34828;SDS011;21042;47.620;12.188;2023-12-20T01:47:16;15.23;;;7.50;;
34828;SDS011;21042;47.620;12.188;2023-12-20T01:49:43;14.98;;;6.90;;
34828;SDS011;21042;47.620;12.188;2023-12-20T01:52:10;13.77;;;7.75;;
34828;SDS011;21042;47.620;12.188;2023-12-20T01:54:38;16.98;;;7.80;;
34828;SDS011;21042;47.620;12.188;2023-12-20T01:57:08;14.65;;;7.22;;
34828;SDS011;21042;47.620;12.188;2023-12-20T01:59:37;13.18;;;6.95;;
34828;SDS011;21042;47.620;12.188;2023-12-20T02:02:06;11.60;;;6.47;;
34828;SDS011;21042;47.620;12.188;2023-12-20T02:04:34;13.27;;;6.80;;
34828;SDS011;21042;47.620;12.188;2023-12-20T02:09:28;13.00;;;6.78;;
34828;SDS011;21042;47.620;12.188;2023-12-20T02:11:55;14.32;;;6.93;;
34828;SDS011;21042;47.620;12.188;2023-12-20T02:14:22;15.70;;;6.13;;
34828;SDS011;21042;47.620;12.188;2023-12-20T02:16:49;14.52;;;6.55;;
34828;SDS011;21042;47.620;12.188;2023-12-20T02:19:16;16.65;;;7.13;;
34828;SDS011;21042;47.620;12.188;2023-12-20T02:21:45;16.33;;;7.10;;
34828;SDS011;21042;47.620;12.188;2023-12-20T02:24:12;9.07;;;4.68;;
34828;SDS011;21042;47.620;12.188;2023-12-20T02:26:38;15.10;;;7.25;;
34828;SDS011;21042;47.620;12.188;2023-12-20T02:29:08;15.82;;;7.10;;
34828;SDS011;21042;47.620;12.188;2023-12-20T02:31:35;12.27;;;6.72;;
34828;SDS011;21042;47.620;12.188;2023-12-20T02:34:02;14.13;;;7.07;;
34828;SDS011;21042;47.620;12.188;2023-12-20T02:36:28;14.43;;;7.00;;
34828;SDS011;21042;47.620;12.188;2023-12-20T02:38:55;15.48;;;6.68;;
34828;SDS011;21042;47.620;12.188;2023-12-20T02:41:22;14.70;;;7.03;;
34828;SDS011;21042;47.620;12.188;2023-12-20T02:43:49;14.88;;;7.53;;
34828;SDS011;21042;47.620;12.188;2023-12-20T02:46:15;19.33;;;7.55;;
34828;SDS011;21042;47.620;12.188;2023-12-20T02:48:43;13.00;;;6.68;;
34828;SDS011;21042;47.620;12.188;2023-12-20T02:51:10;14.23;;;7.28;;
34828;SDS011;21042;47.620;12.188;2023-12-20T02:53:37;14.60;;;7.18;;
34828;SDS011;21042;47.620;12.188;2023-12-20T02:56:04;17.33;;;7.85;;
34828;SDS011;21042;47.620;12.188;2023-12-20T02:58:31;15.95;;;6.93;;
34828;SDS011;21042;47.620;12.188;2023-12-20T03:00:57;15.63;;;7.38;;
34828;SDS011;21042;47.620;12.188;2023-12-20T03:03:24;14.43;;;6.78;;
34828;SDS011;21042;47.620;12.188;2023-12-20T03:05:51;13.93;;;7.47;;
34828;SDS011;21042;47.620;12.188;2023-12-20T03:08:18;12.88;;;6.55;;
34828;SDS011;21042;47.620;12.188;2023-12-20T03:10:45;9.73;;;4.50;;
34828;SDS011;21042;47.620;12.188;2023-12-20T03:13:11;11.68;;;5.15;;
34828;SDS011;21042;47.620;12.188;2023-12-20T03:15:38;11.43;;;5.15;;
34828;SDS011;21042;47.620;12.188;2023-12-20T03:18:05;7.68;;;4.63;;
34828;SDS011;21042;47.620;12.188;2023-12-20T03:20:32;6.68;;;4.10;;
34828;SDS011;21042;47.620;12.188;2023-12-20T03:23:02;5.25;;;3.15;;
34828;SDS011;21042;47.620;12.188;2023-12-20T03:25:28;7.80;;;4.10;;
34828;SDS011;21042;47.620;12.188;2023-12-20T03:27:55;8.15;;;4.20;;
34828;SDS011;21042;47.620;12.188;2023-12-20T03:30:22;8.43;;;3.95;;
34828;SDS011;21042;47.620;12.188;2023-12-20T03:32:49;12.77;;;4.05;;
34828;SDS011;21042;47.620;12.188;2023-12-20T03:35:16;11.75;;;6.15;;
34828;SDS011;21042;47.620;12.188;2023-12-20T03:37:43;14.18;;;6.40;;
34828;SDS011;21042;47.620;12.188;2023-12-20T03:40:10;13.90;;;7.13;;
34828;SDS011;21042;47.620;12.188;2023-12-20T03:42:37;16.25;;;7.13;;
34828;SDS011;21042;47.620;12.188;2023-12-20T03:45:04;17.05;;;6.82;;
34828;SDS011;21042;47.620;12.188;2023-12-20T03:49:58;14.85;;;5.60;;
34828;SDS011;21042;47.620;12.188;2023-12-20T03:52:25;8.75;;;4.05;;
34828;SDS011;21042;47.620;12.188;2023-12-20T03:54:51;5.90;;;3.40;;
34828;SDS011;21042;47.620;12.188;2023-12-20T03:57:18;5.82;;;2.90;;
34828;SDS011;21042;47.620;12.188;2023-12-20T03:59:45;4.25;;;2.17;;
34828;SDS011;21042;47.620;12.188;2023-12-20T04:02:13;7.25;;;3.88;;
34828;SDS011;21042;47.620;12.188;2023-12-20T04:04:40;6.30;;;3.88;;
34828;SDS011;21042;47.620;12.188;2023-12-20T04:07:07;11.80;;;5.38;;
34828;SDS011;21042;47.620;12.188;2023-12-20T04:09:34;9.13;;;5.65;;
34828;SDS011;21042;47.620;12.188;2023-12-20T04:12:00;11.57;;;5.28;;
34828;SDS011;21042;47.620;12.188;2023-12-20T04:14:27;7.28;;;3.78;;
34828;SDS011;21042;47.620;12.188;2023-12-20T04:16:54;10.93;;;5.43;;
34828;SDS011;21042;47.620;12.188;2023-12-20T04:19:20;12.32;;;5.97;;
34828;SDS011;21042;47.620;12.188;2023-12-20T04:24:15;11.30;;;5.20;;
34828;SDS011;21042;47.620;12.188;2023-12-20T04:26:41;11.30;;;5.95;;
34828;SDS011;21042;47.620;12.188;2023-12-20T04:29:08;9.57;;;4.10;;
34828;SDS011;21042;47.620;12.188;2023-12-20T04:31:35;8.13;;;4.80;;
34828;SDS011;21042;47.620;12.188;2023-12-20T04:34:02;14.40;;;7.03;;
34828;SDS011;21042;47.620;12.188;2023-12-20T04:36:29;14.75;;;6.28;;
34828;SDS011;21042;47.620;12.188;2023-12-20T04:38:56;10.57;;;6.05;;
34828;SDS011;21042;47.620;12.188;2023-12-20T04:41:23;10.68;;;5.97;;
34828;SDS011;21042;47.620;12.188;2023-12-20T04:43:49;13.35;;;6.50;;
34828;SDS011;21042;47.620;12.188;2023-12-20T04:46:16;19.55;;;7.28;;
34828;SDS011;21042;47.620;12.188;2023-12-20T04:48:43;12.63;;;7.15;;
34828;SDS011;21042;47.620;12.188;2023-12-20T04:51:10;10.35;;;5.82;;
34828;SDS011;21042;47.620;12.188;2023-12-20T04:53:37;9.70;;;5.72;;
34828;SDS011;21042;47.620;12.188;2023-12-20T04:56:04;12.68;;;6.00;;
34828;SDS011;21042;47.620;12.188;2023-12-20T04:58:30;8.88;;;5.47;;
34828;SDS011;21042;47.620;12.188;2023-12-20T05:00:57;9.88;;;5.75;;
34828;SDS011;21042;47.620;12.188;2023-12-20T05:03:24;11.30;;;5.55;;
34828;SDS011;21042;47.620;12.188;2023-12-20T05:05:51;13.32;;;6.07;;
34828;SDS011;21042;47.620;12.188;2023-12-20T05:08:18;12.70;;;6.30;;
34828;SDS011;21042;47.620;12.188;2023-12-20T05:10:46;11.18;;;5.72;;
34828;SDS011;21042;47.620;12.188;2023-12-20T05:13:12;11.35;;;6.13;;
34828;SDS011;21042;47.620;12.188;2023-12-20T05:15:39;14.43;;;6.47;;
34828;SDS011;21042;47.620;12.188;2023-12-20T05:18:06;12.68;;;5.93;;
34828;SDS011;21042;47.620;12.188;2023-12-20T05:20:33;11.30;;;5.72;;
34828;SDS011;21042;47.620;12.188;2023-12-20T05:23:00;10.98;;;6.68;;
34828;SDS011;21042;47.620;12.188;2023-12-20T05:25:26;13.18;;;6.35;;
34828;SDS011;21042;47.620;12.188;2023-12-20T05:27:53;11.10;;;6.38;;
34828;SDS011;21042;47.620;12.188;2023-12-20T05:30:20;11.30;;;6.78;;
34828;SDS011;21042;47.620;12.188;2023-12-20T05:32:47;10.73;;;5.60;;
34828;SDS011;21042;47.620;12.188;2023-12-20T05:35:14;11.05;;;6.18;;
34828;SDS011;21042;47.620;12.188;2023-12-20T05:37:41;15.85;;;9.20;;
34828;SDS011;21042;47.620;12.188;2023-12-20T05:42:36;20.05;;;10.55;;
34828;SDS011;21042;47.620;12.188;2023-12-20T05:45:06;18.52;;;8.93;;
34828;SDS011;21042;47.620;12.188;2023-12-20T05:47:33;13.20;;;7.70;;
34828;SDS011;21042;47.620;12.188;2023-12-20T05:50:00;20.50;;;10.23;;
34828;SDS011;21042;47.620;12.188;2023-12-20T05:52:27;17.92;;;9.23;;
34828;SDS011;21042;47.620;12.188;2023-12-20T05:54:54;19.60;;;9.40;;
34828;SDS011;21042;47.620;12.188;2023-12-20T05:57:23;22.45;;;9.77;;
34828;SDS011;21042;47.620;12.188;2023-12-20T05:59:49;9.85;;;5.55;;
34828;SDS011;21042;47.620;12.188;2023-12-20T06:02:16;13.45;;;6.90;;
34828;SDS011;21042;47.620;12.188;2023-12-20T06:04:43;12.93;;;6.72;;
34828;SDS011;21042;47.620;12.188;2023-12-20T06:07:13;22.13;;;9.77;;
34828;SDS011;21042;47.620;12.188;2023-12-20T06:09:41;16.33;;;8.38;;
34828;SDS011;21042;47.620;12.188;2023-12-20T06:12:08;20.35;;;8.30;;
34828;SDS011;21042;47.620;12.188;2023-12-20T06:14:35;22.08;;;10.02;;
34828;SDS011;21042;47.620;12.188;2023-12-20T06:17:01;21.98;;;10.18;;
34828;SDS011;21042;47.620;12.188;2023-12-20T06:21:56;22.38;;;10.63;;
34828;SDS011;21042;47.620;12.188;2023-12-20T06:26:54;18.02;;;8.40;;
34828;SDS011;21042;47.620;12.188;2023-12-20T06:29:23;18.30;;;9.02;;
34828;SDS011;21042;47.620;12.188;2023-12-20T06:31:50;14.00;;;8.00;;
34828;SDS011;21042;47.620;12.188;2023-12-20T06:34:17;17.27;;;9.63;;
34828;SDS011;21042;47.620;12.188;2023-12-20T06:36:44;15.98;;;9.05;;
34828;SDS011;21042;47.620;12.188;2023-12-20T06:39:11;22.50;;;9.23;;
34828;SDS011;21042;47.620;12.188;2023-12-20T06:41:39;21.23;;;9.90;;
34828;SDS011;21042;47.620;12.188;2023-12-20T06:44:06;13.80;;;7.63;;
34828;SDS011;21042;47.620;12.188;2023-12-20T06:46:32;15.77;;;8.15;;
34828;SDS011;21042;47.620;12.188;2023-12-20T06:48:59;16.65;;;7.50;;
34828;SDS011;21042;47.620;12.188;2023-12-20T06:51:26;14.57;;;7.63;;
34828;SDS011;21042;47.620;12.188;2023-12-20T06:53:54;16.45;;;7.30;;
34828;SDS011;21042;47.620;12.188;2023-12-20T06:56:20;14.07;;;7.60;;
34828;SDS011;21042;47.620;12.188;2023-12-20T06:58:47;19.80;;;7.82;;
34828;SDS011;21042;47.620;12.188;2023-12-20T07:01:14;15.30;;;7.40;;
34828;SDS011;21042;47.620;12.188;2023-12-20T07:03:42;16.45;;;6.97;;
34828;SDS011;21042;47.620;12.188;2023-12-20T07:06:09;12.15;;;6.85;;
34828;SDS011;21042;47.620;12.188;2023-12-20T07:08:36;13.20;;;6.35;;
34828;SDS011;21042;47.620;12.188;2023-12-20T07:11:02;11.02;;;5.90;;
34828;SDS011;21042;47.620;12.188;2023-12-20T07:13:30;13.13;;;7.45;;
34828;SDS011;21042;47.620;12.188;2023-12-20T07:18:23;29.38;;;9.50;;
34828;SDS011;21042;47.620;12.188;2023-12-20T07:20:51;20.48;;;9.55;;
34828;SDS011;21042;47.620;12.188;2023-12-20T07:23:17;16.45;;;8.20;;
34828;SDS011;21042;47.620;12.188;2023-12-20T07:25:46;26.75;;;13.48;;
34828;SDS011;21042;47.620;12.188;2023-12-20T07:28:13;22.70;;;11.52;;
34828;SDS011;21042;47.620;12.188;2023-12-20T07:30:39;33.22;;;15.93;;
34828;SDS011;21042;47.620;12.188;2023-12-20T07:33:06;50.38;;;22.08;;
34828;SDS011;21042;47.620;12.188;2023-12-20T07:35:35;41.75;;;17.77;;
34828;SDS011;21042;47.620;12.188;2023-12-20T07:38:02;29.02;;;14.75;;
34828;SDS011;21042;47.620;12.188;2023-12-20T07:40:29;27.35;;;12.90;;
34828;SDS011;21042;47.620;12.188;2023-12-20T07:42:56;19.67;;;11.25;;
34828;SDS011;21042;47.620;12.188;2023-12-20T07:45:24;20.75;;;10.88;;
34828;SDS011;21042;47.620;12.188;2023-12-20T07:47:51;31.92;;;16.10;;
34828;SDS011;21042;47.620;12.188;2023-12-20T07:50:18;62.92;;;27.90;;
34828;SDS011;21042;47.620;12.188;2023-12-20T07:52:45;44.67;;;20.75;;
34828;SDS011;21042;47.620;12.188;2023-12-20T07:55:11;43.50;;;20.15;;
34828;SDS011;21042;47.620;12.188;2023-12-20T07:57:38;28.92;;;15.23;;
34828;SDS011;21042;47.620;12.188;2023-12-20T08:00:05;22.95;;;11.38;;
34828;SDS011;21042;47.620;12.188;2023-12-20T08:04:59;23.67;;;10.38;;
34828;SDS011;21042;47.620;12.188;2023-12-20T08:07:26;15.32;;;7.45;;
34828;SDS011;21042;47.620;12.188;2023-12-20T08:09:53;27.90;;;9.95;;
34828;SDS011;21042;47.620;12.188;2023-12-20T08:12:21;20.05;;;9.80;;
34828;SDS011;21042;47.620;12.188;2023-12-20T08:14:48;17.70;;;8.23;;
34828;SDS011;21042;47.620;12.188;2023-12-20T08:17:14;21.02;;;8.93;;
34828;SDS011;21042;47.620;12.188;2023-12-20T08:19:42;20.38;;;9.10;;
34828;SDS011;21042;47.620;12.188;2023-12-20T08:22:09;19.73;;;9.38;;
34828;SDS011;21042;47.620;12.188;2023-12-20T08:24:36;25.77;;;10.50;;
34828;SDS011;21042;47.620;12.188;2023-12-20T08:27:03;15.88;;;8.60;;
34828;SDS011;21042;47.620;12.188;2023-12-20T08:29:30;23.88;;;9.70;;
34828;SDS011;21042;47.620;12.188;2023-12-20T08:31:57;15.18;;;8.68;;
34828;SDS011;21042;47.620;12.188;2023-12-20T08:34:25;22.88;;;9.90;;
34828;SDS011;21042;47.620;12.188;2023-12-20T08:36:52;29.65;;;13.02;;
34828;SDS011;21042;47.620;12.188;2023-12-20T08:39:19;38.85;;;14.80;;
34828;SDS011;21042;47.620;12.188;2023-12-20T08:41:46;31.35;;;11.90;;
34828;SDS011;21042;47.620;12.188;2023-12-20T08:44:13;23.73;;;11.55;;
34828;SDS011;21042;47.620;12.188;2023-12-20T08:46:40;22.48;;;10.82;;
34828;SDS011;21042;47.620;12.188;2023-12-20T08:49:07;19.60;;;7.65;;
34828;SDS011;21042;47.620;12.188;2023-12-20T08:51:35;21.30;;;9.85;;
34828;SDS011;21042;47.620;12.188;2023-12-20T08:54:02;29.77;;;10.13;;
34828;SDS011;21042;47.620;12.188;2023-12-20T08:56:34;21.80;;;10.73;;
34828;SDS011;21042;47.620;12.188;2023-12-20T08:59:01;21.23;;;10.45;;
34828;SDS011;21042;47.620;12.188;2023-12-20T09:01:28;25.27;;;9.98;;
34828;SDS011;21042;47.620;12.188;2023-12-20T09:03:55;25.30;;;12.10;;
34828;SDS011;21042;47.620;12.188;2023-12-20T09:06:21;28.17;;;12.55;;
34828;SDS011;21042;47.620;12.188;2023-12-20T09:08:48;16.75;;;9.55;;
34828;SDS011;21042;47.620;12.188;2023-12-20T09:11:15;31.15;;;11.35;;
34828;SDS011;21042;47.620;12.188;2023-12-20T09:13:44;32.92;;;11.77;;
34828;SDS011;21042;47.620;12.188;2023-12-20T09:16:10;28.45;;;11.50;;
34828;SDS011;21042;47.620;12.188;2023-12-20T09:18:39;25.60;;;12.05;;
34828;SDS011;21042;47.620;12.188;2023-12-20T09:21:06;22.77;;;9.73;;
34828;SDS011;21042;47.620;12.188;2023-12-20T09:23:32;21.60;;;8.60;;
34828;SDS011;21042;47.620;12.188;2023-12-20T09:25:59;24.40;;;11.85;;
34828;SDS011;21042;47.620;12.188;2023-12-20T09:28:26;29.20;;;12.23;;
34828;SDS011;21042;47.620;12.188;2023-12-20T09:30:53;27.02;;;11.32;;
34828;SDS011;21042;47.620;12.188;2023-12-20T09:33:20;23.92;;;11.15;;
34828;SDS011;21042;47.620;12.188;2023-12-20T09:35:46;27.33;;;12.55;;
34828;SDS011;21042;47.620;12.188;2023-12-20T09:38:14;32.15;;;14.57;;
34828;SDS011;21042;47.620;12.188;2023-12-20T09:40:42;25.40;;;11.52;;
34828;SDS011;21042;47.620;12.188;2023-12-20T09:43:10;32.13;;;12.90;;
34828;SDS011;21042;47.620;12.188;2023-12-20T09:45:40;26.38;;;12.55;;
34828;SDS011;21042;47.620;12.188;2023-12-20T09:48:11;25.08;;;12.05;;
34828;SDS011;21042;47.620;12.188;2023-12-20T09:50:40;23.50;;;12.18;;
34828;SDS011;21042;47.620;12.188;2023-12-20T09:53:14;31.58;;;14.32;;
34828;SDS011;21042;47.620;12.188;2023-12-20T09:55:42;30.45;;;14.18;;
34828;SDS011;21042;47.620;12.188;2023-12-20T09:58:09;33.05;;;14.43;;
34828;SDS011;21042;47.620;12.188;2023-12-20T10:00:36;28.25;;;13.40;;
34828;SDS011;21042;47.620;12.188;2023-12-20T10:03:03;23.02;;;11.13;;
34828;SDS011;21042;47.620;12.188;2023-12-20T10:05:33;29.70;;;15.40;;
34828;SDS011;21042;47.620;12.188;2023-12-20T10:08:01;33.42;;;16.02;;
34828;SDS011;21042;47.620;12.188;2023-12-20T10:10:29;38.30;;;17.63;;
34828;SDS011;21042;47.620;12.188;2023-12-20T10:13:11;38.50;;;19.30;;
34828;SDS011;21042;47.620;12.188;2023-12-20T10:15:39;32.47;;;17.70;;
34828;SDS011;21042;47.620;12.188;2023-12-20T10:18:08;36.58;;;18.90;;
34828;SDS011;21042;47.620;12.188;2023-12-20T10:20:35;39.80;;;18.05;;
34828;SDS011;21042;47.620;12.188;2023-12-20T10:23:02;38.53;;;16.50;;
34828;SDS011;21042;47.620;12.188;2023-12-20T10:25:31;32.22;;;15.82;;
34828;SDS011;21042;47.620;12.188;2023-12-20T10:31:01;28.23;;;13.32;;
34828;SDS011;21042;47.620;12.188;2023-12-20T10:33:28;29.92;;;14.10;;
34828;SDS011;21042;47.620;12.188;2023-12-20T10:35:59;32.03;;;14.90;;
34828;SDS011;21042;47.620;12.188;2023-12-20T10:38:25;24.73;;;13.23;;
34828;SDS011;21042;47.620;12.188;2023-12-20T10:40:54;29.00;;;13.27;;
34828;SDS011;21042;47.620;12.188;2023-12-20T10:43:25;28.80;;;12.63;;
34828;SDS011;21042;47.620;12.188;2023-12-20T10:45:54;26.20;;;12.50;;
34828;SDS011;21042;47.620;12.188;2023-12-20T10:48:21;26.40;;;13.05;;
34828;SDS011;21042;47.620;12.188;2023-12-20T10:50:53;20.48;;;11.45;;
34828;SDS011;21042;47.620;12.188;2023-12-20T10:53:22;23.50;;;11.77;;
34828;SDS011;21042;47.620;12.188;2023-12-20T10:55:52;26.05;;;11.85;;
34828;SDS011;21042;47.620;12.188;2023-12-20T10:58:21;28.63;;;13.05;;
34828;SDS011;21042;47.620;12.188;2023-12-20T11:00:50;27.92;;;12.98;;
34828;SDS011;21042;47.620;12.188;2023-12-20T11:03:22;29.15;;;12.48;;
34828;SDS011;21042;47.620;12.188;2023-12-20T11:05:53;29.98;;;12.60;;
34828;SDS011;21042;47.620;12.188;2023-12-20T11:09:06;22.30;;;11.63;;
34828;SDS011;21042;47.620;12.188;2023-12-20T11:12:02;24.20;;;11.75;;
34828;SDS011;21042;47.620;12.188;2023-12-20T11:14:52;25.38;;;12.20;;
34828;SDS011;21042;47.620;12.188;2023-12-20T11:17:23;28.48;;;11.38;;
34828;SDS011;21042;47.620;12.188;2023-12-20T11:22:27;26.45;;;11.32;;
34828;SDS011;21042;47.620;12.188;2023-12-20T11:25:09;22.58;;;10.50;;
34828;SDS011;21042;47.620;12.188;2023-12-20T11:27:41;25.40;;;10.27;;
34828;SDS011;21042;47.620;12.188;2023-12-20T11:30:14;16.55;;;8.25;;
34828;SDS011;21042;47.620;12.188;2023-12-20T11:32:41;27.40;;;12.10;;
34828;SDS011;21042;47.620;12.188;2023-12-20T11:37:37;23.58;;;13.50;;
34828;SDS011;21042;47.620;12.188;2023-12-20T11:40:16;22.73;;;12.77;;
34828;SDS011;21042;47.620;12.188;2023-12-20T11:42:45;24.60;;;11.48;;
34828;SDS011;21042;47.620;12.188;2023-12-20T11:45:15;27.08;;;12.18;;
34828;SDS011;21042;47.620;12.188;2023-12-20T11:47:46;22.17;;;11.52;;
34828;SDS011;21042;47.620;12.188;2023-12-20T11:50:20;20.75;;;10.88;;
34828;SDS011;21042;47.620;12.188;2023-12-20T11:52:48;19.50;;;11.02;;
34828;SDS011;21042;47.620;12.188;2023-12-20T11:55:15;21.42;;;10.63;;
34828;SDS011;21042;47.620;12.188;2023-12-20T11:57:42;19.58;;;10.90;;
34828;SDS011;21042;47.620;12.188;2023-12-20T12:00:11;25.65;;;11.57;;
34828;SDS011;21042;47.620;12.188;2023-12-20T12:02:40;21.95;;;10.60;;
34828;SDS011;21042;47.620;12.188;2023-12-20T12:07:34;21.35;;;11.63;;
34828;SDS011;21042;47.620;12.188;2023-12-20T12:10:02;19.30;;;10.13;;
34828;SDS011;21042;47.620;12.188;2023-12-20T12:12:30;26.38;;;10.13;;
34828;SDS011;21042;47.620;12.188;2023-12-20T12:17:24;20.00;;;9.27;;
34828;SDS011;21042;47.620;12.188;2023-12-20T12:19:51;17.88;;;9.27;;
34828;SDS011;21042;47.620;12.188;2023-12-20T12:22:29;23.95;;;9.90;;
34828;SDS011;21042;47.620;12.188;2023-12-20T12:24:58;16.33;;;8.98;;
34828;SDS011;21042;47.620;12.188;2023-12-20T12:27:35;16.38;;;8.13;;
34828;SDS011;21042;47.620;12.188;2023-12-20T12:30:02;14.40;;;7.80;;
34828;SDS011;21042;47.620;12.188;2023-12-20T12:32:30;14.90;;;8.27;;
34828;SDS011;21042;47.620;12.188;2023-12-20T12:34:58;17.98;;;9.18;;
34828;SDS011;21042;47.620;12.188;2023-12-20T12:37:25;12.32;;;7.05;;
34828;SDS011;21042;47.620;12.188;2023-12-20T12:39:53;14.43;;;8.05;;
34828;SDS011;21042;47.620;12.188;2023-12-20T12:42:21;12.18;;;7.88;;
34828;SDS011;21042;47.620;12.188;2023-12-20T12:44:51;16.17;;;7.97;;
34828;SDS011;21042;47.620;12.188;2023-12-20T12:47:18;16.08;;;8.02;;
34828;SDS011;21042;47.620;12.188;2023-12-20T12:49:45;20.48;;;11.02;;
34828;SDS011;21042;47.620;12.188;2023-12-20T12:52:12;31.40;;;15.80;;
34828;SDS011;21042;47.620;12.188;2023-12-20T12:54:39;33.58;;;16.55;;
34828;SDS011;21042;47.620;12.188;2023-12-20T12:57:06;17.55;;;8.93;;
34828;SDS011;21042;47.620;12.188;2023-12-20T12:59:32;15.25;;;9.38;;
34828;SDS011;21042;47.620;12.188;2023-12-20T13:02:02;26.08;;;12.40;;
34828;SDS011;21042;47.620;12.188;2023-12-20T13:04:30;17.77;;;9.35;;
34828;SDS011;21042;47.620;12.188;2023-12-20T13:06:57;16.08;;;7.78;;
34828;SDS011;21042;47.620;12.188;2023-12-20T13:09:24;18.27;;;6.70;;
34828;SDS011;21042;47.620;12.188;2023-12-20T13:11:51;12.88;;;4.93;;
34828;SDS011;21042;47.620;12.188;2023-12-20T13:14:18;15.05;;;5.35;;
34828;SDS011;21042;47.620;12.188;2023-12-20T13:16:44;13.00;;;6.43;;
34828;SDS011;21042;47.620;12.188;2023-12-20T13:19:12;12.20;;;6.03;;
34828;SDS011;21042;47.620;12.188;2023-12-20T13:21:39;16.85;;;7.78;;
34828;SDS011;21042;47.620;12.188;2023-12-20T13:24:06;11.60;;;5.35;;
34828;SDS011;21042;47.620;12.188;2023-12-20T13:26:33;13.48;;;5.40;;
34828;SDS011;21042;47.620;12.188;2023-12-20T13:29:00;10.27;;;5.20;;
34828;SDS011;21042;47.620;12.188;2023-12-20T13:31:27;8.68;;;3.53;;
34828;SDS011;21042;47.620;12.188;2023-12-20T13:36:21;5.65;;;2.17;;
34828;SDS011;21042;47.620;12.188;2023-12-20T13:38:49;3.83;;;2.10;;
34828;SDS011;21042;47.620;12.188;2023-12-20T13:41:16;2.85;;;1.73;;
34828;SDS011;21042;47.620;12.188;2023-12-20T13:43:43;3.13;;;1.10;;
34828;SDS011;21042;47.620;12.188;2023-12-20T13:46:10;3.40;;;1.23;;
34828;SDS011;21042;47.620;12.188;2023-12-20T13:48:37;2.45;;;1.70;;
34828;SDS011;21042;47.620;12.188;2023-12-20T13:51:04;6.22;;;1.67;;
34828;SDS011;21042;47.620;12.188;2023-12-20T13:53:30;4.60;;;2.33;;
34828;SDS011;21042;47.620;12.188;2023-12-20T13:55:57;4.22;;;2.45;;
34828;SDS011;21042;47.620;12.188;2023-12-20T13:58:26;6.03;;;2.95;;
34828;SDS011;21042;47.620;12.188;2023-12-20T14:00:52;5.18;;;2.85;;
34828;SDS011;21042;47.620;12.188;2023-12-20T14:03:19;4.22;;;2.05;;
34828;SDS011;21042;47.620;12.188;2023-12-20T14:08:13;4.55;;;2.17;;
34828;SDS011;21042;47.620;12.188;2023-12-20T14:10:40;4.53;;;1.60;;
34828;SDS011;21042;47.620;12.188;2023-12-20T14:13:07;1.95;;;1.10;;
34828;SDS011;21042;47.620;12.188;2023-12-20T14:15:34;3.88;;;1.50;;
34828;SDS011;21042;47.620;12.188;2023-12-20T14:18:06;6.38;;;2.33;;
34828;SDS011;21042;47.620;12.188;2023-12-20T14:20:34;7.72;;;3.60;;
34828;SDS011;21042;47.620;12.188;2023-12-20T14:25:29;0.90;;;0.60;;
34828;SDS011;21042;47.620;12.188;2023-12-20T14:28:10;3.88;;;0.80;;
34828;SDS011;21042;47.620;12.188;2023-12-20T14:30:40;2.17;;;0.95;;
34828;SDS011;21042;47.620;12.188;2023-12-20T14:33:07;4.00;;;1.00;;
34828;SDS011;21042;47.620;12.188;2023-12-20T14:35:34;6.78;;;1.00;;
34828;SDS011;21042;47.620;12.188;2023-12-20T14:38:00;9.43;;;2.03;;
34828;SDS011;21042;47.620;12.188;2023-12-20T14:40:27;3.90;;;0.70;;
34828;SDS011;21042;47.620;12.188;2023-12-20T14:42:54;6.70;;;0.98;;
34828;SDS011;21042;47.620;12.188;2023-12-20T14:45:21;3.97;;;1.30;;
34828;SDS011;21042;47.620;12.188;2023-12-20T14:47:48;2.45;;;0.98;;
34828;SDS011;21042;47.620;12.188;2023-12-20T14:50:15;3.83;;;1.52;;
34828;SDS011;21042;47.620;12.188;2023-12-20T14:52:45;10.88;;;0.90;;
34828;SDS011;21042;47.620;12.188;2023-12-20T14:55:12;7.05;;;1.00;;
34828;SDS011;21042;47.620;12.188;2023-12-20T14:57:39;4.43;;;0.80;;
34828;SDS011;21042;47.620;12.188;2023-12-20T15:00:06;5.30;;;1.23;;
34828;SDS011;21042;47.620;12.188;2023-12-20T15:02:34;2.22;;;1.20;;
34828;SDS011;21042;47.620;12.188;2023-12-20T15:05:00;10.73;;;1.30;;
34828;SDS011;21042;47.620;12.188;2023-12-20T15:07:27;7.85;;;1.70;;
34828;SDS011;21042;47.620;12.188;2023-12-20T15:09:54;12.43;;;5.78;;
34828;SDS011;21042;47.620;12.188;2023-12-20T15:12:22;19.80;;;2.90;;